GZI weather

Ghazni Airport
Ghazni, Ghazni Province, Afghanistan

Public forecast

Using degrees Celsius for public forecast. Weather courtesy of forecast.io.

METAR (pilot weather report)

Closest report is Hamid Karzai International Airport, 73.8 nm (136.6 km) NNE. Retrieved 2019/08/20 00:50 UTC (1 hour ago):

OAKB 200050Z 06003KT CAVOK 14/00 Q1019 NOSIG RMK A3009 BLU BLU

TAF (pilot weather forecast)

Forecast is more than 12 hours old.

Closest forecast is Hamid Karzai International Airport, 73.8 nm (136.6 km) NNE. Retrieved 2019/08/19 00:05 UTC (1 day ago):

TAF OAKB 192305Z 2000/2024 VRB02KT CAVOK BECMG 2006/2008 02012KT FEW100 TEMPO 2012/2016 02015G25KT BECMG 2016/2018 VRB02KT CAVOK